Data for 11/05/2014

Time Sea-Level Adjusted Pressure Absolute Pressure Temperature Relative Humidity Dew Point   
(mb) (inHg) (mb) (inHg) (C) (F) (%) (C) (F)
00:05 1022 30.18 851 25.13 8.7 47.7 47 -2 28.4
00:10 1022 30.18 852 25.16 8.7 47.7 47 -2 28.3
00:15 1022 30.18 852 25.16 8.7 47.6 46 -2.3 27.9
00:20 1022 30.18 852 25.16 8.8 47.8 46 -2.1 28.2
00:25 1022 30.18 852 25.16 8.7 47.7 46 -2.1 28.2
00:30 1022 30.18 852 25.16 8.6 47.5 47 -2.1 28.3
00:35 1022 30.18 851 25.13 8.6 47.5 46 -2.3 27.9
00:40 1022 30.18 851 25.13 8.6 47.5 47 -2.2 28.1
00:45 1022 30.18 851 25.13 8.7 47.6 46 -2.4 27.8
00:50 1022 30.18 852 25.16 8.9 48 45 -2.3 27.9
00:55 1023 30.21 852 25.16 8.8 47.9 45 -2.3 27.8
01:00 1023 30.21 852 25.16 8.8 47.8 46 -2.1 28.2
01:05 1023 30.21 852 25.16 8.6 47.5 46 -2.3 27.8
01:10 1023 30.21 852 25.16 8.8 47.8 46 -2.3 27.9
01:15 1023 30.21 852 25.16 8.8 47.8 46 -2.2 28
01:20 1023 30.21 852 25.16 8.7 47.7 46 -2.2 28.1
01:25 1023 30.21 852 25.16 8.7 47.7 46 -2.1 28.2
01:30 1023 30.21 852 25.16 8.8 47.8 46 -2.2 28
01:35 1023 30.21 852 25.16 8.8 47.8 46 -2.1 28.3
01:40 1023 30.21 852 25.16 8.7 47.6 46 -2.1 28.1
01:45 1023 30.21 852 25.16 8.6 47.5 46 -2.2 28
01:50 1023 30.21 852 25.16 8.6 47.4 47 -2.1 28.3
01:55 1023 30.21 853 25.19 8.4 47.2 47 -2.1 28.2
02:00 1023 30.21 853 25.19 8.3 46.9 48 -2 28.3
02:05 1023 30.21 853 25.19 8.3 46.9 47 -2.3 27.9
02:10 1023 30.21 853 25.19 8.4 47.1 47 -2.4 27.7
02:15 1023 30.21 853 25.19 8.5 47.2 47 -2.2 28.1
02:20 1023 30.21 853 25.19 8.2 46.8 48 -2.2 28
02:25 1024 30.24 853 25.19 8.1 46.6 47 -2.4 27.8
02:30 1023 30.21 853 25.19 8.2 46.8 47 -2.5 27.5
02:35 1023 30.21 853 25.19 8.3 46.9 47 -2.5 27.6
02:40 1024 30.24 853 25.19 8.4 47 46 -2.5 27.6
02:45 1024 30.24 853 25.19 8.3 46.9 46 -2.6 27.3
02:50 1024 30.24 853 25.19 8.2 46.7 46 -2.6 27.3
02:55 1024 30.24 853 25.19 8.1 46.6 47 -2.6 27.3
03:00 1024 30.24 853 25.19 8 46.4 47 -2.7 27.1
03:05 1024 30.24 853 25.19 8 46.4 46 -2.8 26.9
03:10 1024 30.24 853 25.19 8 46.5 46 -2.9 26.8
03:15 1024 30.24 853 25.19 8.2 46.7 45 -3 26.5
03:20 1024 30.24 853 25.19 8.2 46.7 46 -2.8 26.9
03:25 1024 30.24 853 25.19 8.1 46.6 46 -2.8 26.9
03:30 1024 30.24 853 25.19 8.1 46.6 45 -3 26.6
03:35 1024 30.24 853 25.19 8.2 46.7 44 -3.3 26
03:40 1024 30.24 853 25.19 8.3 46.9 43 -3.4 25.9
03:45 1024 30.24 853 25.19 8.3 47 44 -3.2 26.2
03:50 1024 30.24 853 25.19 8.1 46.6 44 -3.4 25.9
03:55 1024 30.24 853 25.19 8.1 46.5 44 -3.4 25.9
04:00 1024 30.24 853 25.19 7.9 46.2 44 -3.5 25.7
04:05 1024 30.24 853 25.19 7.7 45.9 45 -3.5 25.7
04:10 1024 30.24 853 25.19 7.6 45.7 44 -3.8 25.1
04:15 1024 30.24 853 25.19 7.7 45.8 44 -3.8 25.2
04:20 1024 30.24 853 25.19 7.7 45.9 44 -3.9 25
04:25 1024 30.24 853 25.19 7.7 45.9 43 -3.9 24.9
04:30 1024 30.24 853 25.19 7.8 46 43 -4 24.9
04:35 1024 30.24 853 25.19 7.7 45.9 43 -3.9 24.9
04:40 1024 30.24 853 25.19 7.8 46 43 -4 24.8
04:45 1024 30.24 853 25.19 7.7 45.8 44 -3.9 25
04:50 1024 30.24 853 25.19 7.5 45.4 44 -4 24.9
04:55 1024 30.24 853 25.19 7.3 45.1 44 -4 24.8
05:00 1024 30.24 853 25.19 7.3 45.1 44 -4.1 24.6
05:05 1024 30.24 853 25.19 7.2 45 44 -4.2 24.4
05:10 1024 30.24 853 25.19 7.4 45.3 43 -4.4 24.1
05:15 1024 30.24 853 25.19 7.5 45.4 44 -4.1 24.7
05:20 1024 30.24 853 25.19 7.3 45.1 44 -4.1 24.6
05:25 1024 30.24 854 25.22 7.2 45 44 -4.1 24.6
05:30 1024 30.24 854 25.22 7.2 45 44 -4.1 24.6
05:35 1025 30.27 854 25.22 7.3 45.1 44 -4.2 24.4
05:40 1025 30.27 854 25.22 7.4 45.2 44 -4.2 24.4
05:45 1025 30.27 854 25.22 7.4 45.3 44 -4.2 24.5
05:50 1025 30.27 854 25.22 7.3 45.1 44 -4.2 24.5
05:55 1025 30.27 854 25.22 7.3 45.1 44 -4.1 24.6
06:00 1024 30.24 854 25.22 7.3 45.1 44 -4.2 24.4
06:05 1024 30.24 854 25.22 7.4 45.3 44 -4.2 24.5
06:10 1024 30.24 854 25.22 7.4 45.3 43 -4.2 24.4
06:15 1024 30.24 854 25.22 7.4 45.3 44 -4.1 24.6
06:20 1024 30.24 854 25.22 7.4 45.2 44 -4.2 24.4
06:25 1024 30.24 854 25.22 7.4 45.4 43 -4.2 24.4
06:30 1025 30.27 854 25.22 7.5 45.5 43 -4.1 24.6
06:35 1025 30.27 854 25.22 7.4 45.4 44 -4 24.9
06:40 1025 30.27 854 25.22 7.4 45.3 44 -4.1 24.6
06:45 1025 30.27 854 25.22 7.3 45.2 45 -3.8 25.1
06:50 1025 30.27 854 25.22 7.1 44.8 46 -3.8 25.1
06:55 1025 30.27 854 25.22 7 44.5 46 -3.8 25.2
07:00 1025 30.27 855 25.25 7 44.6 45 -4.2 24.5
07:05 1025 30.27 855 25.25 7.3 45.2 44 -4.1 24.6
07:10 1025 30.27 855 25.25 7.4 45.3 43 -4.2 24.4
07:15 1025 30.27 854 25.22 7.5 45.4 43 -4.3 24.2
07:20 1025 30.27 855 25.25 7.7 45.8 42 -4.4 24.1
07:25 1025 30.27 855 25.25 7.8 46 42 -4.4 24.1
07:30 1025 30.27 855 25.25 7.8 46 42 -4.3 24.2
07:35 1025 30.27 855 25.25 7.7 45.9 42 -4.5 23.9
07:40 1025 30.27 855 25.25 7.8 46.1 42 -4.4 24.1
07:45 1025 30.27 855 25.25 7.7 45.9 42 -4.4 24.1
07:50 1025 30.27 855 25.25 7.6 45.7 42 -4.3 24.2
07:55 1025 30.27 855 25.25 7.6 45.7 43 -4.3 24.2
08:00 1025 30.27 855 25.25 7.6 45.7 43 -4.1 24.5
08:05 1026 30.3 855 25.25 7.4 45.3 44 -4.2 24.5
08:10 1026 30.3 855 25.25 7.4 45.3 43 -4.3 24.3
08:15 1025 30.27 855 25.25 7.4 45.3 43 -4.2 24.4
08:20 1025 30.27 855 25.25 7.3 45.1 44 -4.2 24.4
08:25 1025 30.27 855 25.25 7.2 45 44 -4.3 24.3
08:30 1025 30.27 855 25.25 7.3 45.1 43 -4.3 24.2
08:35 1025 30.27 855 25.25 7.3 45.2 44 -4.2 24.5
08:40 1025 30.27 855 25.25 7.3 45.2 43 -4.3 24.3
08:45 1026 30.3 855 25.25 7.3 45.1 44 -4.1 24.7
08:50 1026 30.3 855 25.25 7.3 45.1 44 -4.2 24.5
08:55 1026 30.3 855 25.25 7.4 45.2 44 -4.2 24.4
09:00 1026 30.3 855 25.25 7.4 45.4 43 -4.3 24.3
09:05 1026 30.3 855 25.25 7.6 45.7 43 -4.3 24.3
09:10 1026 30.3 855 25.25 7.6 45.6 43 -4.1 24.6
09:15 1026 30.3 855 25.25 7.6 45.6 43 -4.1 24.6
09:20 1026 30.3 855 25.25 7.6 45.6 43 -4.1 24.6
09:25 1026 30.3 855 25.25 7.7 45.8 43 -4 24.8
09:30 1026 30.3 855 25.25 7.7 45.8 44 -3.9 24.9
09:35 1026 30.3 855 25.25 7.7 45.8 44 -3.7 25.3
09:40 1026 30.3 855 25.25 7.8 46 43 -4.1 24.6
09:45 1026 30.3 855 25.25 8.1 46.6 42 -3.9 25
09:50 1026 30.3 855 25.25 8.3 46.9 42 -3.7 25.3
09:55 1026 30.3 855 25.25 8.5 47.3 41 -3.8 25.1
10:00 1026 30.3 855 25.25 8.5 47.3 41 -3.9 25
10:05 1026 30.3 856 25.28 8.5 47.3 41 -3.8 25.2
10:10 1027 30.33 856 25.28 8.7 47.6 41 -3.7 25.4
10:15 1027 30.33 856 25.28 9 48.1 40 -3.9 25
10:20 1027 30.33 856 25.28 9.3 48.7 39 -3.9 25
10:25 1027 30.33 856 25.28 9.8 49.7 37 -4.2 24.5
10:30 1027 30.33 856 25.28 10.3 50.5 36 -4.1 24.6
10:35 1027 30.33 856 25.28 10.2 50.3 36 -4.1 24.7
10:40 1027 30.33 856 25.28 9.8 49.7 37 -4.1 24.6
10:45 1027 30.33 856 25.28 9.7 49.4 38 -3.9 25
10:50 1027 30.33 856 25.28 9.6 49.3 39 -3.8 25.2
10:55 1027 30.33 856 25.28 9.6 49.3 38 -3.9 25
11:00 1027 30.33 856 25.28 9.6 49.4 38 -4 24.9
11:05 1027 30.33 856 25.28 9.8 49.7 38 -4 24.9
11:10 1027 30.33 856 25.28 10 50 37 -4 24.8
11:15 1027 30.33 856 25.28 10.1 50.2 37 -3.9 25
11:20 1027 30.33 856 25.28 10.2 50.3 36 -4.1 24.6
11:25 1027 30.33 856 25.28 10.3 50.5 36 -4.2 24.5
11:30 1027 30.33 856 25.28 10.2 50.3 36 -4 24.7
11:35 1027 30.33 856 25.28 10.1 50.2 37 -4 24.8
11:40 1027 30.33 856 25.28 10.1 50.1 37 -4 24.8
11:45 1027 30.33 856 25.28 10 50 37 -3.8 25.1
11:50 1027 30.33 856 25.28 10.1 50.1 36 -4.3 24.2
11:55 1027 30.33 856 25.28 10.5 51 34 -4.5 24
12:00 1027 30.33 856 25.28 11.1 52 33 -4.5 23.9
12:05 1027 30.33 856 25.28 11.4 52.6 33 -4.4 24.1
12:10 1027 30.33 856 25.28 11.7 53.1 32 -4.3 24.3
12:15 1027 30.33 856 25.28 11.7 53.1 31 -4.9 23.2
12:20 1027 30.33 856 25.28 11.6 52.9 31 -4.7 23.5
12:25 1027 30.33 856 25.28 11.5 52.6 32 -4.6 23.6
12:30 1027 30.33 856 25.28 11.1 52 31 -5.4 22.2
12:35 1027 30.33 856 25.28 11 51.8 32 -5.2 22.6
12:40 1027 30.33 856 25.28 11 51.8 31 -5.3 22.4
12:45 1027 30.33 856 25.28 11.2 52.2 31 -5.5 22.2
12:50 1027 30.33 856 25.28 11.9 53.5 30 -5.2 22.7
12:55 1027 30.33 856 25.28 12.4 54.2 28 -5.5 22
13:00 1027 30.33 856 25.28 12.7 54.8 27 -5.6 21.9
13:05 1027 30.33 856 25.28 12.1 53.7 29 -5.4 22.3
13:10 1027 30.33 856 25.28 11.7 53.1 28 -6.3 20.6
13:15 1027 30.33 856 25.28 11.7 53.1 29 -5.8 21.5
13:20 1027 30.33 856 25.28 11.8 53.3 29 -5.8 21.5
13:25 1027 30.33 856 25.28 11.9 53.3 29 -5.7 21.8
13:30 1027 30.33 856 25.28 11.7 53 28 -6.1 21
13:35 1027 30.33 856 25.28 11.7 53.1 27 -6.6 20.2
13:40 1027 30.33 856 25.28 11.9 53.3 27 -6.5 20.4
13:45 1027 30.33 856 25.28 11.9 53.5 28 -6.2 20.9
13:50 1027 30.33 856 25.28 11.9 53.5 27 -6.2 20.8
13:55 1027 30.33 856 25.28 11.8 53.2 28 -6 21.1
14:00 1026 30.3 856 25.28 11.9 53.4 27 -6.6 20.2
14:05 1026 30.3 856 25.28 11.9 53.3 27 -6.4 20.5
14:10 1026 30.3 856 25.28 11.9 53.4 27 -6.7 19.9
14:15 1026 30.3 856 25.28 11.9 53.5 27 -6.7 19.9
14:20 1026 30.3 856 25.28 12.1 53.7 27 -6.5 20.4
14:25 1026 30.3 856 25.28 12.2 54 27 -6.3 20.6
14:30 1026 30.3 856 25.28 12.2 54 26 -6.6 20.1
14:35 1026 30.3 856 25.28 12.2 54 26 -6.8 19.8
14:40 1026 30.3 856 25.28 12.3 54.1 27 -6.2 20.9
14:45 1026 30.3 855 25.25 12.2 53.9 26 -6.6 20.2
14:50 1026 30.3 855 25.25 12 53.6 27 -6.2 20.8
14:55 1026 30.3 855 25.25 12 53.6 28 -6.1 21.1
15:00 1026 30.3 855 25.25 12 53.7 27 -6.2 20.9
15:05 1026 30.3 855 25.25 12.1 53.7 27 -6.2 20.9
15:10 1026 30.3 855 25.25 12.1 53.7 27 -6.4 20.5
15:15 1026 30.3 855 25.25 12 53.7 27 -6.2 20.9
15:20 1026 30.3 855 25.25 12.1 53.7 28 -5.8 21.6
15:25 1026 30.3 856 25.28 12.1 53.8 29 -5.2 22.7
15:30 1026 30.3 856 25.28 12.1 53.9 29 -5.2 22.6
15:35 1026 30.3 855 25.25 12 53.6 29 -5.4 22.2
15:40 1026 30.3 855 25.25 12 53.6 29 -5.5 22.1
15:45 1026 30.3 855 25.25 12 53.6 29 -5.6 21.9
15:50 1026 30.3 856 25.28 12 53.6 29 -5.6 22
15:55 1026 30.3 856 25.28 12 53.5 29 -5.4 22.3
16:00 1026 30.3 856 25.28 12 53.5 29 -5.3 22.4
16:05 1026 30.3 856 25.28 12 53.6 29 -5.4 22.2
16:10 1027 30.33 856 25.28 12 53.7 29 -5.3 22.4
16:15 1026 30.3 856 25.28 12.1 53.8 28 -5.6 21.9
16:20 1026 30.3 856 25.28 12.1 53.7 29 -5.5 22.1
16:25 1026 30.3 856 25.28 12 53.7 29 -5.5 22.1
16:30 1026 30.3 856 25.28 12 53.6 29 -5.3 22.4
16:35 1026 30.3 856 25.28 12.1 53.7 29 -5.3 22.4
16:40 1026 30.3 856 25.28 12 53.6 30 -5.2 22.7
16:45 1026 30.3 856 25.28 12 53.7 30 -5.1 22.8
16:50 1027 30.33 856 25.28 12 53.7 30 -4.9 23.1
16:55 1027 30.33 856 25.28 11.9 53.5 30 -4.9 23.2
17:00 1027 30.33 856 25.28 11.9 53.5 31 -4.7 23.5
17:05 1027 30.33 856 25.28 12 53.5 32 -4.1 24.6
17:10 1027 30.33 856 25.28 11.4 52.5 33 -4.2 24.5
17:15 1027 30.33 856 25.28 11.2 52.2 33 -4.4 24.1
17:20 1027 30.33 856 25.28 11 51.8 33 -4.4 24
17:25 1027 30.33 856 25.28 11 51.7 35 -4 24.9
17:30 1027 30.33 856 25.28 10.8 51.4 35 -4.2 24.5
17:35 1027 30.33 856 25.28 10.7 51.3 35 -4.1 24.6
17:40 1027 30.33 856 25.28 11 51.7 34 -4.3 24.2
17:45 1027 30.33 856 25.28 11 51.9 33 -4.4 24.1
17:50 1027 30.33 856 25.28 11.2 52.1 33 -4.6 23.8
17:55 1027 30.33 856 25.28 11 51.8 33 -4.6 23.8
18:00 1027 30.33 856 25.28 10.8 51.4 33 -4.7 23.6
18:05 1027 30.33 856 25.28 10.5 51 34 -4.5 23.9
18:10 1027 30.33 856 25.28 10.3 50.6 35 -4.5 23.8
18:15 1027 30.33 856 25.28 10.2 50.4 35 -4.5 23.9
18:20 1027 30.33 856 25.28 10.1 50.3 35 -4.5 24
18:25 1027 30.33 856 25.28 9.7 49.4 39 -3.4 25.8
18:30 1027 30.33 856 25.28 9.1 48.4 40 -3.9 25
18:35 1027 30.33 856 25.28 8.9 48.1 39 -4.2 24.4
18:40 1027 30.33 856 25.28 9.1 48.4 39 -4.1 24.6
18:45 1027 30.33 856 25.28 8.8 47.8 42 -3.3 26.1
18:50 1027 30.33 856 25.28 8.2 46.8 43 -3.5 25.7
18:55 1027 30.33 856 25.28 7.8 46 45 -3.4 25.8
19:00 1027 30.33 857 25.31 7.3 45.2 46 -3.5 25.7
19:05 1027 30.33 857 25.31 7.2 44.9 47 -3.4 25.9
19:10 1027 30.33 857 25.31 7.4 45.2 44 -4 24.7
19:15 1027 30.33 857 25.31 7.6 45.7 44 -4 24.8
19:20 1027 30.33 857 25.31 7.6 45.6 44 -4 24.8
19:25 1028 30.36 857 25.31 7.4 45.3 45 -3.8 25.1
19:30 1028 30.36 857 25.31 7.3 45.1 45 -4 24.9
19:35 1028 30.36 857 25.31 7.4 45.3 45 -3.7 25.3
19:40 1028 30.36 857 25.31 7.4 45.2 45 -3.7 25.3
19:45 1028 30.36 857 25.31 7.3 45.1 46 -3.7 25.4
19:50 1028 30.36 857 25.31 7 44.7 46 -3.7 25.3
19:55 1028 30.36 857 25.31 6.9 44.5 47 -3.7 25.3
20:00 1028 30.36 857 25.31 6.8 44.2 47 -3.8 25.1
20:05 1028 30.36 857 25.31 6.8 44.2 46 -3.9 24.9
20:10 1028 30.36 857 25.31 6.8 44.2 47 -3.8 25.2
20:15 1028 30.36 857 25.31 6.9 44.5 46 -3.9 25
20:20 1028 30.36 857 25.31 7.1 44.7 45 -4.1 24.6
20:25 1028 30.36 857 25.31 6.8 44.2 47 -3.7 25.3
20:30 1028 30.36 857 25.31 6.3 43.4 48 -3.7 25.3
20:35 1028 30.36 857 25.31 6.2 43.1 47 -4.3 24.2
20:40 1028 30.36 857 25.31 6.5 43.7 46 -4.3 24.3
20:45 1028 30.36 857 25.31 6.5 43.6 44 -4.8 23.4
20:50 1028 30.36 857 25.31 7.4 45.3 44 -4 24.8
20:55 1028 30.36 857 25.31 6.8 44.3 44 -4.6 23.8
21:00 1028 30.36 857 25.31 6.8 44.2 45 -4.4 24.1
21:05 1028 30.36 857 25.31 6.5 43.7 47 -4 24.7
21:10 1028 30.36 857 25.31 6.3 43.3 47 -4.1 24.6
21:15 1028 30.36 857 25.31 6 42.9 50 -3.7 25.3
21:20 1028 30.36 857 25.31 5.7 42.3 50 -3.9 25
21:25 1028 30.36 857 25.31 5.5 41.8 51 -3.9 24.9
21:30 1028 30.36 857 25.31 5.5 41.8 50 -4 24.8
21:35 1028 30.36 857 25.31 5.6 42 51 -3.8 25.1
21:40 1028 30.36 857 25.31 5.8 42.4 50 -3.9 25
21:45 1028 30.36 857 25.31 5.5 42 50 -4 24.8
21:50 1028 30.36 857 25.31 5.3 41.5 51 -4 24.8
21:55 1028 30.36 857 25.31 5.1 41.2 51 -4.1 24.6
22:00 1028 30.36 858 25.34 5.1 41.2 51 -4.1 24.5
22:05 1028 30.36 858 25.34 5.3 41.5 50 -4.2 24.4
22:10 1028 30.36 858 25.34 5.4 41.8 50 -4.1 24.6
22:15 1028 30.36 857 25.31 5.3 41.5 51 -4 24.8
22:20 1028 30.36 858 25.34 4.8 40.6 54 -3.6 25.5
22:25 1028 30.36 858 25.34 4.5 40.1 52 -4.6 23.7
22:30 1028 30.36 858 25.34 5.5 41.8 49 -4.3 24.2
22:35 1029 30.39 858 25.34 5.5 42 50 -4.2 24.5
22:40 1029 30.39 858 25.34 5.5 41.9 49 -4.4 24.1
22:45 1029 30.39 858 25.34 5.6 42.1 48 -4.5 23.9
22:50 1029 30.39 858 25.34 5.7 42.2 49 -4.2 24.4
22:55 1029 30.39 858 25.34 5.4 41.6 51 -4.1 24.7
23:00 1028 30.36 858 25.34 5.4 41.6 48 -4.7 23.5
23:05 1028 30.36 858 25.34 5.7 42.3 50 -3.8 25.2
23:10 1028 30.36 858 25.34 5.2 41.3 52 -4 24.8
23:15 1028 30.36 858 25.34 5 41.1 52 -4 24.8
23:20 1028 30.36 858 25.34 4.9 40.9 52 -4 24.8
23:25 1028 30.36 858 25.34 4.9 40.7 53 -3.9 25
23:30 1028 30.36 857 25.31 4.7 40.5 53 -4 24.8
23:35 1028 30.36 857 25.31 4.3 39.7 57 -3.5 25.7
23:40 1028 30.36 857 25.31 3.8 38.8 57 -4.1 24.7
23:45 1028 30.36 858 25.34 4.1 39.4 56 -4 24.8
23:50 1028 30.36 857 25.31 4.3 39.7 56 -3.9 25.1
23:55 1028 30.36 857 25.31 4.2 39.6 55 -4 24.8
24:00 1028 30.36 857 25.31 4.9 40.7 51 -4.4 24.1